Time;durP1;ratioP1;P1;durP2;ratioP2;P2;SDS_P1;SDS_P2;PMS_P1;PMS_P2;Temp;Humidity;BMP_temperature;BMP_pressure;BME280_temperature;BME280_humidity;BME280_pressure;Samples;Min_cycle;Max_cycle;Signal;HPM_P1;HPM_P2
2023/04/09 00:02:21;;;;;;;6.22;2.20;;;10.10;99.90;;;;;;4968558;28;20042;-71
2023/04/09 00:04:46;;;;;;;8.75;2.15;;;10.00;99.90;;;;;;4971371;28;20038;-71
2023/04/09 00:07:12;;;;;;;4.68;2.08;;;10.10;99.90;;;;;;4968482;28;20069;-71
2023/04/09 00:09:38;;;;;;;5.13;2.45;;;10.10;99.90;;;;;;4978117;28;20792;-71
2023/04/09 00:12:04;;;;;;;4.30;2.25;;;10.10;99.90;;;;;;4972635;28;20035;-71
2023/04/09 00:14:30;;;;;;;4.45;2.10;;;10.10;99.90;;;;;;4981706;28;20026;-71
2023/04/09 00:16:56;;;;;;;4.20;1.80;;;10.20;99.90;;;;;;4974998;28;20442;-71
2023/04/09 00:19:21;;;;;;;7.10;2.40;;;10.00;99.90;;;;;;4979922;28;20073;-71
2023/04/09 00:21:47;;;;;;;4.60;2.13;;;9.90;99.90;;;;;;4975346;28;20034;-71
2023/04/09 00:24:13;;;;;;;6.38;3.08;;;9.90;99.90;;;;;;4978945;28;20037;-71
2023/04/09 00:26:39;;;;;;;3.95;2.22;;;9.70;99.90;;;;;;4977092;28;20360;-72
2023/04/09 00:29:05;;;;;;;4.63;2.40;;;9.70;99.90;;;;;;4960411;28;20034;-71
2023/04/09 00:31:31;;;;;;;6.78;2.78;;;9.70;99.90;;;;;;4976082;28;20446;-70
2023/04/09 00:33:57;;;;;;;7.30;2.70;;;9.60;99.90;;;;;;4976517;28;20036;-71
2023/04/09 00:36:23;;;;;;;5.30;2.20;;;9.60;99.90;;;;;;4977911;28;20387;-71
2023/04/09 00:38:52;;;;;;;5.47;2.38;;;9.50;99.90;;;;;;4975590;28;20041;-71
2023/04/09 00:41:19;;;;;;;7.38;3.08;;;9.60;99.90;;;;;;4978173;28;20098;-71
2023/04/09 00:43:45;;;;;;;8.07;2.90;;;9.50;99.90;;;;;;4975591;28;20050;-71
2023/04/09 00:46:11;;;;;;;6.35;2.83;;;9.60;99.90;;;;;;4979573;28;20455;-71
2023/04/09 00:48:37;;;;;;;7.53;2.63;;;9.60;99.90;;;;;;4974446;28;20031;-71
2023/04/09 00:51:03;;;;;;;7.70;3.33;;;9.60;99.90;;;;;;4977751;28;20483;-71
2023/04/09 00:53:28;;;;;;;9.32;4.32;;;9.70;99.90;;;;;;4974265;28;20434;-70
2023/04/09 00:55:55;;;;;;;5.30;3.08;;;9.50;99.90;;;;;;4978648;28;20046;-70
2023/04/09 00:58:21;;;;;;;7.95;2.85;;;9.50;99.90;;;;;;4972997;28;20422;-71
2023/04/09 01:00:47;;;;;;;7.68;3.67;;;9.50;99.90;;;;;;4978937;28;20035;-71
2023/04/09 01:03:12;;;;;;;8.90;3.30;;;9.40;99.90;;;;;;4973925;28;20026;-72
2023/04/09 01:05:46;;;;;;;7.85;2.88;;;9.40;99.90;;;;;;4969838;28;20504;-73
2023/04/09 01:08:59;;;;;;;9.07;2.55;;;9.40;99.90;;;;;;4975118;28;20033;-69
2023/04/09 01:11:34;;;;;;;7.47;3.05;;;9.40;99.90;;;;;;4971458;28;20081;-71
2023/04/09 01:14:37;;;;;;;8.13;2.72;;;9.60;99.90;;;;;;4976365;28;20031;-71
2023/04/09 01:17:25;;;;;;;6.88;2.78;;;9.60;99.90;;;;;;4973250;28;20034;-71
2023/04/09 01:20:33;;;;;;;8.43;3.28;;;9.60;99.90;;;;;;4979598;28;20030;-71
2023/04/09 01:23:36;;;;;;;6.28;3.28;;;9.40;99.90;;;;;;4959822;28;20169;-71
2023/04/09 01:26:40;;;;;;;12.93;3.85;;;9.20;99.90;;;;;;4980582;28;20035;-71
2023/04/09 01:29:07;;;;;;;4.00;1.98;;;9.20;99.90;;;;;;4990494;28;20045;-71
2023/04/09 01:31:38;;;;;;;8.35;3.40;;;9.20;99.90;;;;;;4977225;28;20379;-71
2023/04/09 01:34:06;;;;;;;;;;;9.10;99.90;;;;;;4960060;28;20026;-70
2023/04/09 01:36:34;;;;;;;4.18;2.28;;;9.10;99.90;;;;;;4973933;28;19914;-71
2023/04/09 01:39:01;;;;;;;6.47;2.95;;;9.10;99.90;;;;;;4974052;28;20031;-71
2023/04/09 01:41:31;;;;;;;6.88;2.80;;;9.10;99.90;;;;;;4977639;28;20030;-71
2023/04/09 01:44:00;;;;;;;11.05;3.10;;;9.30;99.90;;;;;;4978576;28;20037;-71
2023/04/09 01:46:26;;;;;;;7.30;3.05;;;9.30;99.90;;;;;;4971951;28;20030;-71
2023/04/09 01:48:54;;;;;;;6.82;2.92;;;9.30;99.90;;;;;;4972046;28;20067;-70
2023/04/09 01:51:20;;;;;;;8.93;3.35;;;9.40;99.90;;;;;;4977128;28;20027;-71
2023/04/09 01:53:46;;;;;;;12.05;4.80;;;9.50;99.90;;;;;;4974054;28;20034;-71
2023/04/09 01:56:11;;;;;;;7.40;3.55;;;9.60;99.90;;;;;;4979946;28;20383;-71
2023/04/09 01:58:37;;;;;;;12.75;4.25;;;9.60;99.90;;;;;;4973350;28;20019;-71
2023/04/09 02:01:21;;;;;;;9.27;3.90;;;9.40;99.90;;;;;;4977879;28;20027;-71
2023/04/09 02:03:55;;;;;;;7.85;3.40;;;9.40;99.90;;;;;;4972293;28;20035;-70
2023/04/09 02:07:25;;;;;;;6.72;3.33;;;9.50;99.90;;;;;;4978108;28;20034;-71
2023/04/09 02:09:53;;;;;;;5.15;2.42;;;9.60;99.90;;;;;;4968199;28;20041;-70
2023/04/09 02:12:20;;;;;;;7.57;3.05;;;9.50;99.90;;;;;;4975663;28;20034;-71
2023/04/09 02:14:50;;;;;;;7.75;3.25;;;9.30;99.90;;;;;;4973248;28;20033;-71
2023/04/09 02:17:16;;;;;;;7.85;3.58;;;9.40;99.90;;;;;;4975904;28;20037;-71
2023/04/09 02:19:44;;;;;;;10.38;2.90;;;9.50;99.90;;;;;;4979243;28;20486;-71
2023/04/09 02:22:11;;;;;;;11.38;3.85;;;9.50;99.90;;;;;;4970179;28;20049;-71
2023/04/09 02:24:37;;;;;;;7.88;3.72;;;9.50;99.90;;;;;;4979018;28;20041;-71
2023/04/09 02:27:04;;;;;;;8.70;3.35;;;9.20;99.90;;;;;;4970302;28;20042;-71
2023/04/09 02:29:31;;;;;;;8.95;3.22;;;9.20;99.90;;;;;;4978832;28;20052;-71
2023/04/09 02:31:56;;;;;;;8.52;3.63;;;9.20;99.90;;;;;;4971589;28;20039;-71
2023/04/09 02:34:23;;;;;;;10.15;4.03;;;9.10;99.90;;;;;;4977432;28;20093;-71
2023/04/09 02:36:49;;;;;;;6.72;3.15;;;9.20;99.90;;;;;;4975708;28;20030;-72
2023/04/09 02:39:14;;;;;;;7.20;3.60;;;9.30;99.90;;;;;;4976372;28;20077;-71
2023/04/09 02:41:40;;;;;;;10.02;3.55;;;9.30;99.90;;;;;;4973802;28;20093;-71
2023/04/09 02:44:06;;;;;;;11.00;3.63;;;9.40;99.90;;;;;;4975537;28;20031;-70
2023/04/09 02:46:32;;;;;;;9.43;3.53;;;9.20;99.90;;;;;;4974273;28;20105;-71
2023/04/09 02:48:58;;;;;;;9.77;3.83;;;9.00;99.90;;;;;;4973797;28;20487;-71
2023/04/09 02:51:23;;;;;;;9.68;3.35;;;8.90;99.90;;;;;;4975106;28;20058;-71
2023/04/09 02:53:49;;;;;;;7.15;3.03;;;8.80;99.90;;;;;;4972836;28;20034;-71
2023/04/09 02:56:15;;;;;;;8.00;3.35;;;9.00;99.90;;;;;;4976507;28;20027;-72
2023/04/09 02:58:40;;;;;;;9.00;3.42;;;8.90;99.90;;;;;;4971844;28;20026;-71
2023/04/09 03:01:06;;;;;;;9.82;4.45;;;9.00;99.90;;;;;;4977117;28;20038;-72
2023/04/09 03:03:32;;;;;;;9.15;4.35;;;9.00;99.90;;;;;;4970473;28;20034;-71
2023/04/09 03:05:58;;;;;;;7.35;2.97;;;8.90;99.90;;;;;;4977353;28;20035;-71
2023/04/09 03:08:23;;;;;;;6.78;3.22;;;8.90;99.90;;;;;;4971839;28;20363;-71
2023/04/09 03:10:49;;;;;;;12.43;4.00;;;9.00;99.90;;;;;;4976914;28;20034;-71
2023/04/09 03:13:15;;;;;;;11.05;4.10;;;8.80;99.90;;;;;;4972143;28;20114;-71
2023/04/09 03:15:41;;;;;;;8.68;4.10;;;8.70;99.90;;;;;;4975170;28;20122;-71
2023/04/09 03:18:06;;;;;;;9.93;4.03;;;8.70;99.90;;;;;;4971230;28;20043;-71
2023/04/09 03:20:32;;;;;;;8.65;3.38;;;8.70;99.90;;;;;;4975523;28;20130;-71
2023/04/09 03:22:58;;;;;;;9.82;4.28;;;8.70;99.90;;;;;;4971604;28;20459;-71
2023/04/09 03:25:24;;;;;;;9.95;4.72;;;8.50;99.90;;;;;;4976743;28;20027;-71
2023/04/09 03:27:49;;;;;;;8.20;4.28;;;8.40;99.90;;;;;;4983391;28;20058;-70
2023/04/09 03:30:15;;;;;;;8.73;3.88;;;8.20;99.90;;;;;;4978400;28;20019;-70
2023/04/09 03:32:41;;;;;;;10.85;4.45;;;8.20;99.90;;;;;;4969170;28;20654;-70
2023/04/09 03:35:07;;;;;;;6.88;3.35;;;8.20;99.90;;;;;;4979335;28;20031;-71
2023/04/09 03:37:33;;;;;;;10.13;3.80;;;8.20;99.90;;;;;;4969271;28;20031;-71
2023/04/09 03:39:58;;;;;;;12.40;4.82;;;8.10;99.90;;;;;;4979480;28;20485;-72
2023/04/09 03:42:24;;;;;;;9.25;5.22;;;8.10;99.90;;;;;;4968889;28;20058;-72
2023/04/09 03:44:53;;;;;;;7.30;3.42;;;8.00;99.90;;;;;;4981925;28;20030;-71
2023/04/09 03:47:19;;;;;;;10.13;3.75;;;7.90;99.90;;;;;;4972986;28;20390;-70
2023/04/09 03:49:45;;;;;;;10.98;4.97;;;7.80;99.90;;;;;;4983159;28;20030;-70
2023/04/09 03:52:10;;;;;;;11.07;4.32;;;7.80;99.90;;;;;;4972363;28;20034;-70
2023/04/09 03:54:36;;;;;;;10.35;4.18;;;7.80;99.90;;;;;;4982691;28;20034;-71
2023/04/09 03:57:03;;;;;;;9.20;4.03;;;7.70;99.90;;;;;;4973117;28;20066;-70
2023/04/09 03:59:29;;;;;;;10.07;3.88;;;7.70;99.90;;;;;;4981299;28;20065;-71
2023/04/09 04:01:54;;;;;;;13.02;4.45;;;7.80;99.90;;;;;;4973980;28;20042;-71
2023/04/09 04:04:20;;;;;;;14.30;5.05;;;7.80;99.90;;;;;;4980379;28;20113;-70
2023/04/09 04:06:46;;;;;;;9.55;4.22;;;7.80;99.90;;;;;;4976434;28;20042;-70
2023/04/09 04:09:11;;;;;;;9.10;3.67;;;7.80;99.90;;;;;;4978965;28;20030;-70
2023/04/09 04:11:37;;;;;;;12.73;5.15;;;7.80;99.90;;;;;;4976139;28;20038;-70
2023/04/09 04:14:03;;;;;;;8.50;4.22;;;7.80;99.90;;;;;;4976263;28;20023;-70
2023/04/09 04:16:29;;;;;;;9.93;4.32;;;7.80;99.90;;;;;;4975182;28;20023;-70
2023/04/09 04:18:54;;;;;;;8.52;3.83;;;7.80;99.90;;;;;;4976449;28;20038;-70
2023/04/09 04:21:20;;;;;;;11.20;4.95;;;7.70;99.90;;;;;;4978789;28;20029;-70
2023/04/09 04:23:46;;;;;;;13.77;4.43;;;7.80;99.90;;;;;;4975480;28;20434;-70
2023/04/09 04:26:12;;;;;;;14.57;4.53;;;7.70;99.90;;;;;;4979685;28;20068;-70
2023/04/09 04:28:39;;;;;;;12.85;4.78;;;7.80;99.90;;;;;;4974698;28;20030;-71
2023/04/09 04:31:11;;;;;;;8.70;4.10;;;7.80;99.90;;;;;;4979764;28;20023;-71
2023/04/09 04:33:39;;;;;;;13.55;4.75;;;7.80;99.90;;;;;;4974272;28;20717;-71
2023/04/09 04:36:14;;;;;;;10.73;4.53;;;7.70;99.90;;;;;;4979049;28;20034;-70
2023/04/09 04:38:40;;;;;;;9.20;4.47;;;7.70;99.90;;;;;;4969855;28;20475;-70
2023/04/09 04:41:06;;;;;;;10.32;4.93;;;7.80;99.90;;;;;;4979885;28;20062;-70
2023/04/09 04:43:33;;;;;;;13.18;4.97;;;7.80;99.90;;;;;;4969799;28;20030;-70
2023/04/09 04:45:59;;;;;;;11.98;4.95;;;7.80;99.90;;;;;;4978688;28;20126;-71
2023/04/09 04:48:26;;;;;;;8.50;4.82;;;7.80;99.90;;;;;;4978192;28;20027;-70
2023/04/09 04:51:00;;;;;;;12.88;4.15;;;7.80;99.90;;;;;;4979468;28;20045;-70
2023/04/09 04:53:26;;;;;;;14.32;4.78;;;7.90;99.90;;;;;;4973101;28;20550;-70
2023/04/09 04:55:53;;;;;;;11.05;4.45;;;7.90;99.90;;;;;;4995437;28;20117;-70
2023/04/09 04:58:19;;;;;;;12.25;5.25;;;7.80;99.90;;;;;;4973207;28;20027;-69
2023/04/09 05:00:45;;;;;;;11.45;4.35;;;7.80;99.90;;;;;;4979034;28;20031;-70
2023/04/09 05:03:11;;;;;;;8.80;4.82;;;7.80;99.90;;;;;;4974089;28;20382;-70
2023/04/09 05:05:37;;;;;;;8.68;4.13;;;7.80;99.90;;;;;;4972631;28;20557;-71
2023/04/09 05:08:03;;;;;;;11.00;4.20;;;7.80;99.90;;;;;;4973881;28;20030;-71
2023/04/09 05:10:29;;;;;;;15.15;4.25;;;7.80;99.90;;;;;;4979313;28;20034;-70
2023/04/09 05:12:55;;;;;;;11.90;4.32;;;7.80;99.90;;;;;;4973871;28;20383;-71
2023/04/09 05:15:21;;;;;;;14.10;5.22;;;7.90;99.90;;;;;;4978516;28;20027;-71
2023/04/09 05:17:47;;;;;;;12.52;4.30;;;7.80;99.90;;;;;;4973829;28;20035;-70
2023/04/09 05:20:12;;;;;;;10.85;4.88;;;7.80;99.90;;;;;;4980616;28;20037;-68
2023/04/09 05:22:38;;;;;;;8.07;4.20;;;7.80;99.90;;;;;;4971725;28;20597;-70
2023/04/09 05:25:05;;;;;;;11.50;3.92;;;7.90;99.90;;;;;;4981622;28;20058;-76
2023/04/09 05:27:30;;;;;;;9.23;4.20;;;8.00;99.90;;;;;;4971150;28;20178;-71
2023/04/09 05:29:56;;;;;;;10.73;4.60;;;7.90;99.90;;;;;;4981225;28;20113;-70
2023/04/09 05:32:22;;;;;;;9.20;4.55;;;7.90;99.90;;;;;;4970666;28;20034;-72
2023/04/09 05:34:48;;;;;;;15.20;4.78;;;7.80;99.90;;;;;;4980229;28;20030;-73
2023/04/09 05:37:14;;;;;;;13.95;5.35;;;7.70;99.90;;;;;;4970622;28;20030;-71
2023/04/09 05:39:40;;;;;;;14.73;5.90;;;7.80;99.90;;;;;;4981220;28;20014;-73
2023/04/09 05:42:06;;;;;;;10.88;4.00;;;7.80;99.90;;;;;;4970970;28;20402;-73
2023/04/09 05:44:31;;;;;;;10.95;4.72;;;7.80;99.90;;;;;;4978713;28;20085;-73
2023/04/09 05:46:57;;;;;;;11.45;4.53;;;7.80;99.90;;;;;;4971789;28;20050;-70
2023/04/09 05:49:24;;;;;;;12.25;4.95;;;7.90;99.90;;;;;;4978299;28;20033;-72
2023/04/09 05:51:50;;;;;;;12.63;5.07;;;7.90;99.90;;;;;;4976202;28;20062;-71
2023/04/09 05:54:16;;;;;;;11.20;5.20;;;7.90;99.90;;;;;;4975960;28;20026;-70
2023/04/09 05:56:42;;;;;;;13.43;4.90;;;7.90;99.90;;;;;;4973683;28;20045;-70
2023/04/09 05:59:08;;;;;;;14.95;5.07;;;7.90;99.90;;;;;;4974690;28;20502;-70
2023/04/09 06:01:34;;;;;;;30.02;5.90;;;7.90;99.90;;;;;;4977502;28;20093;-70
2023/04/09 06:03:59;;;;;;;10.40;4.47;;;8.00;99.90;;;;;;4975194;28;20023;-70
2023/04/09 06:06:25;;;;;;;11.48;5.22;;;7.80;99.90;;;;;;4975928;28;20062;-70
2023/04/09 06:08:51;;;;;;;9.65;4.15;;;7.80;99.90;;;;;;4973437;28;20399;-70
2023/04/09 06:11:17;;;;;;;11.15;5.72;;;7.90;99.90;;;;;;4976411;28;20070;-71
2023/04/09 06:13:43;;;;;;;15.93;5.40;;;7.90;99.90;;;;;;4973154;28;20039;-71
2023/04/09 06:16:09;;;;;;;12.50;5.03;;;8.00;99.90;;;;;;4960330;28;20470;-71
2023/04/09 06:18:36;;;;;;;15.73;5.68;;;8.10;99.90;;;;;;4972437;28;20033;-70
2023/04/09 06:21:07;;;;;;;15.23;5.85;;;8.00;99.90;;;;;;4975559;28;20031;-70
2023/04/09 06:23:35;;;;;;;13.30;5.15;;;8.00;99.90;;;;;;4965724;28;20030;-70
2023/04/09 06:26:01;;;;;;;11.48;5.10;;;8.10;99.90;;;;;;4971292;28;20085;-73
2023/04/09 06:28:31;;;;;;;10.23;5.07;;;8.20;99.90;;;;;;4972553;28;20077;-69
2023/04/09 06:30:57;;;;;;;17.60;5.43;;;8.20;99.90;;;;;;4979383;28;20038;-68
2023/04/09 06:33:23;;;;;;;10.63;4.88;;;8.10;99.90;;;;;;4972397;28;20122;-71
2023/04/09 06:35:49;;;;;;;12.15;4.78;;;8.20;99.90;;;;;;4976802;28;20110;-69
2023/04/09 06:38:15;;;;;;;14.68;4.63;;;8.20;99.90;;;;;;4972487;28;20107;-69
2023/04/09 06:40:42;;;;;;;15.32;5.57;;;8.30;99.90;;;;;;4977884;28;20031;-69
2023/04/09 06:43:08;;;;;;;12.05;5.30;;;8.50;99.90;;;;;;4969678;28;20031;-69
2023/04/09 06:45:36;;;;;;;16.15;5.57;;;8.60;99.90;;;;;;4977777;28;20027;-69
2023/04/09 06:48:02;;;;;;;30.08;12.82;;;8.70;99.90;;;;;;4972089;28;20038;-69
2023/04/09 06:50:28;;;;;;;19.55;8.90;;;8.70;99.90;;;;;;4976562;28;20031;-69
2023/04/09 06:52:54;;;;;;;16.33;5.97;;;8.60;99.90;;;;;;4971847;28;20026;-69
2023/04/09 06:55:20;;;;;;;16.92;6.03;;;8.60;99.90;;;;;;4994063;28;20062;-69
2023/04/09 06:57:46;;;;;;;15.23;5.35;;;8.90;99.90;;;;;;4970756;28;20058;-69
2023/04/09 07:00:12;;;;;;;15.10;6.32;;;9.10;99.90;;;;;;4979315;28;20026;-69
2023/04/09 07:02:38;;;;;;;11.55;5.45;;;9.30;99.90;;;;;;4970290;28;20042;-69
2023/04/09 07:05:05;;;;;;;34.13;12.23;;;9.40;99.90;;;;;;4979735;28;20039;-69
2023/04/09 07:07:30;;;;;;;12.48;5.35;;;9.60;99.90;;;;;;4968234;28;20609;-69
2023/04/09 07:09:56;;;;;;;13.90;4.72;;;9.60;99.90;;;;;;4966135;28;20034;-69
2023/04/09 07:12:34;;;;;;;13.43;4.78;;;9.40;99.90;;;;;;4971103;28;20042;-70
2023/04/09 07:15:05;;;;;;;11.77;4.80;;;9.60;99.90;;;;;;4970321;28;20027;-69
2023/04/09 07:17:31;;;;;;;;;;;9.90;99.90;;;;;;4971961;28;20030;-69
2023/04/09 07:19:57;;;;;;;13.85;5.53;;;9.60;99.90;;;;;;4960229;28;19926;-70
2023/04/09 07:22:25;;;;;;;18.73;7.20;;;9.50;99.90;;;;;;4971286;28;20112;-70
2023/04/09 07:24:54;;;;;;;13.20;5.15;;;9.50;99.90;;;;;;4974028;28;20036;-70
2023/04/09 07:27:27;;;;;;;14.75;4.68;;;9.80;99.90;;;;;;4971170;28;20023;-70
2023/04/09 07:29:58;;;;;;;10.18;4.72;;;10.00;99.90;;;;;;4973801;28;20035;-70
2023/04/09 07:32:26;;;;;;;10.43;5.40;;;10.10;99.90;;;;;;4969972;28;20034;-69
2023/04/09 07:34:53;;;;;;;10.65;4.93;;;9.70;99.90;;;;;;4973711;28;20293;-70
2023/04/09 07:37:20;;;;;;;10.18;4.60;;;9.70;99.90;;;;;;4969904;28;20034;-69
2023/04/09 07:39:47;;;;;;;19.23;8.40;;;9.70;99.90;;;;;;4973490;28;20027;-70
2023/04/09 07:42:13;;;;;;;10.05;4.25;;;9.90;99.90;;;;;;4971423;28;20126;-70
2023/04/09 07:44:39;;;;;;;15.52;6.40;;;9.70;99.90;;;;;;4974380;28;20523;-70
2023/04/09 07:47:07;;;;;;;11.93;4.28;;;10.00;99.90;;;;;;4970606;28;20038;-70
2023/04/09 07:49:34;;;;;;;13.73;6.03;;;10.30;99.90;;;;;;4969746;28;20559;-70
2023/04/09 07:52:00;;;;;;;9.57;4.55;;;10.30;99.90;;;;;;4968872;28;20041;-70
2023/04/09 07:54:27;;;;;;;10.50;5.05;;;10.40;99.90;;;;;;4977845;28;20546;-69
2023/04/09 07:56:53;;;;;;;9.90;4.13;;;10.50;99.90;;;;;;4970955;28;20027;-70
2023/04/09 07:59:19;;;;;;;11.90;5.05;;;10.50;99.90;;;;;;4974520;28;20553;-70
2023/04/09 08:01:44;;;;;;;10.70;5.28;;;10.60;99.90;;;;;;4967426;28;20038;-69
2023/04/09 08:04:11;;;;;;;11.20;4.70;;;10.70;99.90;;;;;;4978025;28;20038;-70
2023/04/09 08:06:37;;;;;;;14.23;5.20;;;10.50;99.90;;;;;;4967139;28;20085;-70
2023/04/09 08:09:03;;;;;;;10.18;4.95;;;10.70;99.90;;;;;;4965991;28;20848;-70
2023/04/09 08:11:29;;;;;;;10.48;4.55;;;10.80;99.90;;;;;;4963515;28;20475;-71
2023/04/09 08:13:56;;;;;;;11.40;4.72;;;11.00;99.90;;;;;;4969799;28;20337;-70
2023/04/09 08:16:23;;;;;;;11.77;4.82;;;11.10;99.90;;;;;;4970555;28;20097;-69
2023/04/09 08:18:52;;;;;;;9.73;4.53;;;10.90;99.90;;;;;;4961197;28;20384;-70
2023/04/09 08:21:19;;;;;;;10.98;4.47;;;10.90;99.90;;;;;;4964062;28;20022;-66
2023/04/09 08:23:45;;;;;;;8.32;3.55;;;11.20;99.90;;;;;;4970534;28;20082;-69
2023/04/09 08:26:10;;;;;;;17.52;6.40;;;11.40;99.90;;;;;;4975815;28;20470;-69
2023/04/09 08:28:36;;;;;;;11.13;5.63;;;11.30;99.90;;;;;;4970702;28;20038;-68
2023/04/09 08:31:02;;;;;;;9.30;4.60;;;10.80;99.90;;;;;;4968532;28;20450;-72
2023/04/09 08:33:28;;;;;;;10.32;5.13;;;10.80;99.90;;;;;;4973112;28;20041;-70
2023/04/09 08:35:53;;;;;;;7.50;3.42;;;10.80;99.90;;;;;;4974849;28;20110;-69
2023/04/09 08:38:19;;;;;;;7.15;3.45;;;10.90;99.90;;;;;;4967072;28;20089;-69
2023/04/09 08:40:45;;;;;;;10.63;4.78;;;10.90;99.90;;;;;;4974037;28;20041;-71
2023/04/09 08:43:15;;;;;;;8.65;3.97;;;10.90;99.90;;;;;;4973806;28;20035;-70
2023/04/09 08:45:41;;;;;;;6.72;4.13;;;10.90;99.90;;;;;;4974321;28;20031;-69
2023/04/09 08:48:09;;;;;;;10.60;4.70;;;11.10;99.90;;;;;;4971262;28;20179;-70
2023/04/09 08:50:36;;;;;;;13.07;4.80;;;11.00;99.90;;;;;;4968875;28;20046;-69
2023/04/09 08:53:03;;;;;;;10.93;4.55;;;11.30;99.90;;;;;;4967177;28;20074;-68
2023/04/09 08:55:30;;;;;;;9.30;4.10;;;11.40;99.90;;;;;;4943443;28;20031;-71
2023/04/09 08:57:57;;;;;;;7.35;3.75;;;11.60;99.90;;;;;;4956329;28;20038;-70
2023/04/09 09:00:23;;;;;;;9.05;3.85;;;11.60;99.90;;;;;;4969356;28;20069;-69
2023/04/09 09:03:10;;;;;;;7.28;3.70;;;12.00;99.90;;;;;;4974010;28;20046;-69
2023/04/09 09:05:37;;;;;;;9.48;3.53;;;11.80;99.90;;;;;;4961618;28;20081;-69
2023/04/09 09:08:03;;;;;;;9.65;3.58;;;11.90;99.90;;;;;;4972699;28;20045;-70
2023/04/09 09:10:42;;;;;;;7.00;3.65;;;12.20;99.90;;;;;;4980148;28;20030;-69
2023/04/09 09:16:12;;;;;;;7.85;3.67;;;12.40;99.90;;;;;;4949797;28;20078;-68
2023/04/09 09:18:41;;;;;;;8.35;4.05;;;12.80;99.90;;;;;;4963096;28;20170;-68
2023/04/09 09:21:16;;;;;;;8.90;3.60;;;12.70;99.90;;;;;;4946522;29;20090;-68
2023/04/09 09:23:43;;;;;;;11.43;4.03;;;12.20;99.90;;;;;;4952387;28;20113;-68
2023/04/09 09:26:17;;;;;;;7.15;3.22;;;12.40;99.90;;;;;;4954565;28;20098;-69
2023/04/09 09:28:48;;;;;;;9.88;3.58;;;12.50;99.90;;;;;;4952340;29;20031;-69
2023/04/09 09:31:15;;;;;;;8.18;3.40;;;12.40;99.90;;;;;;4954163;29;20513;-69
2023/04/09 09:33:41;;;;;;;8.55;4.00;;;12.30;99.90;;;;;;4951065;28;20683;-69
2023/04/09 09:36:10;;;;;;;9.02;4.35;;;12.30;99.90;;;;;;4954457;29;20035;-69
2023/04/09 09:38:55;;;;;;;9.32;3.92;;;12.40;99.90;;;;;;4951675;28;20039;-69
2023/04/09 09:41:21;;;;;;;8.82;3.58;;;12.70;99.90;;;;;;4948184;28;20479;-70
2023/04/09 09:43:47;;;;;;;7.38;3.35;;;12.50;99.90;;;;;;4951914;28;20132;-69
2023/04/09 09:46:14;;;;;;;6.78;3.60;;;12.90;99.90;;;;;;4954615;29;20042;-69
2023/04/09 09:48:41;;;;;;;10.80;3.85;;;12.50;99.90;;;;;;4952508;29;20091;-69
2023/04/09 09:51:13;;;;;;;6.60;3.10;;;12.50;99.90;;;;;;4953987;29;20109;-69
2023/04/09 09:53:43;;;;;;;7.55;3.47;;;12.60;99.90;;;;;;4951231;29;20388;-69
2023/04/09 09:56:21;;;;;;;12.23;4.43;;;12.40;99.90;;;;;;4968885;28;20038;-69
2023/04/09 09:59:06;;;;;;;8.05;3.60;;;12.60;99.90;;;;;;4950667;29;20023;-69
2023/04/09 10:01:34;;;;;;;8.20;3.17;;;12.30;99.90;;;;;;4952869;29;20023;-68
2023/04/09 10:04:01;;;;;;;12.38;3.05;;;12.70;99.90;;;;;;4951729;29;20032;-69
2023/04/09 10:06:29;;;;;;;3.92;1.98;;;12.90;99.90;;;;;;4952475;29;20051;-69
2023/04/09 10:08:58;;;;;;;5.35;2.75;;;13.10;99.90;;;;;;4950295;29;20068;-69
2023/04/09 10:11:24;;;;;;;5.72;3.13;;;13.40;99.90;;;;;;4953331;29;20370;-68
2023/04/09 10:14:00;;;;;;;9.73;3.25;;;13.50;99.90;;;;;;4950097;28;20118;-69
2023/04/09 10:16:27;;;;;;;7.47;2.78;;;13.90;99.90;;;;;;4952738;29;20106;-68
2023/04/09 10:18:57;;;;;;;5.63;2.72;;;14.20;99.10;;;;;;4949912;29;20067;-68
2023/04/09 10:21:52;;;;;;;5.15;2.88;;;13.70;99.70;;;;;;4952324;29;20098;-68
2023/04/09 10:24:18;;;;;;;5.75;2.92;;;13.20;99.80;;;;;;4935764;29;20110;-69
2023/04/09 10:26:45;;;;;;;4.43;2.50;;;13.20;98.60;;;;;;4952294;28;20124;-68
2023/04/09 10:29:15;;;;;;;7.10;3.83;;;13.20;99.30;;;;;;4950730;29;20024;-69
2023/04/09 10:31:51;;;;;;;4.65;2.35;;;13.10;98.80;;;;;;4951880;29;20678;-69
2023/04/09 10:34:22;;;;;;;5.38;2.97;;;13.80;98.60;;;;;;4950129;29;20146;-69
2023/04/09 10:36:57;;;;;;;4.07;2.58;;;13.90;98.40;;;;;;4936531;29;20035;-69
2023/04/09 10:39:29;;;;;;;4.82;2.65;;;13.80;98.30;;;;;;4949446;28;20438;-69
2023/04/09 10:41:57;;;;;;;4.63;2.33;;;13.60;98.00;;;;;;4952064;29;20086;-69
2023/04/09 10:44:25;;;;;;;5.40;2.60;;;13.80;98.10;;;;;;4950915;28;20102;-69
2023/04/09 10:46:55;;;;;;;5.55;2.55;;;13.70;97.90;;;;;;4953288;29;20039;-69
2023/04/09 10:49:25;;;;;;;5.55;2.22;;;13.50;98.10;;;;;;4949322;28;20074;-69
2023/04/09 10:52:00;;;;;;;4.20;2.45;;;13.80;98.70;;;;;;4953184;29;20035;-69
2023/04/09 10:54:49;;;;;;;5.55;2.33;;;14.00;98.10;;;;;;4950104;28;20451;-68
2023/04/09 10:57:18;;;;;;;5.00;2.33;;;13.90;98.00;;;;;;4945394;29;20058;-69
2023/04/09 10:59:53;;;;;;;5.47;2.90;;;14.20;97.50;;;;;;4948975;29;20043;-69
2023/04/09 11:02:36;;;;;;;9.90;2.33;;;14.60;96.60;;;;;;4953064;29;20027;-69
2023/04/09 11:05:31;;;;;;;5.72;2.25;;;14.30;97.20;;;;;;4950339;29;20047;-68
2023/04/09 11:08:12;;;;;;;4.20;2.53;;;14.40;95.60;;;;;;4951585;29;20053;-69
2023/04/09 11:10:43;;;;;;;6.68;2.40;;;14.10;96.20;;;;;;4948724;29;20395;-69
2023/04/09 11:13:17;;;;;;;4.55;2.22;;;14.10;96.70;;;;;;4932476;29;20451;-69
2023/04/09 11:15:44;;;;;;;5.90;2.65;;;14.20;96.40;;;;;;4949647;28;20035;-69
2023/04/09 11:18:29;;;;;;;5.78;2.47;;;14.30;95.70;;;;;;4952688;29;20399;-69
2023/04/09 11:20:57;;;;;;;5.00;2.60;;;14.30;95.70;;;;;;4950852;29;20491;-69
2023/04/09 11:23:24;;;;;;;4.40;1.80;;;14.30;95.70;;;;;;4952479;29;20170;-69
2023/04/09 11:25:51;;;;;;;5.55;2.83;;;14.60;96.50;;;;;;4949533;29;20562;-69
2023/04/09 11:28:17;;;;;;;5.90;2.50;;;14.90;96.50;;;;;;4935506;29;20031;-69
2023/04/09 11:30:43;;;;;;;3.63;2.15;;;14.90;95.00;;;;;;4949801;29;20039;-68
2023/04/09 11:33:09;;;;;;;7.10;2.20;;;15.30;94.20;;;;;;4952683;29;20050;-68
2023/04/09 11:35:35;;;;;;;5.53;2.72;;;14.80;93.80;;;;;;4950144;29;20038;-68
2023/04/09 11:38:07;;;;;;;7.90;2.58;;;14.50;93.80;;;;;;4951554;28;20038;-68
2023/04/09 11:40:34;;;;;;;3.78;1.95;;;14.80;94.40;;;;;;4932527;29;20546;-68
2023/04/09 11:43:01;;;;;;;5.75;2.15;;;14.70;94.90;;;;;;4952531;29;20039;-69
2023/04/09 11:45:30;;;;;;;3.58;2.00;;;14.90;94.10;;;;;;4950004;28;20031;-69
2023/04/09 11:47:56;;;;;;;4.55;2.35;;;14.90;94.10;;;;;;4951201;29;20038;-70
2023/04/09 11:50:22;;;;;;;13.27;2.38;;;14.90;92.60;;;;;;4949758;28;20054;-69
2023/04/09 11:52:49;;;;;;;4.80;2.20;;;14.50;93.60;;;;;;4952560;29;20035;-69
2023/04/09 11:55:26;;;;;;;3.85;2.00;;;15.10;95.30;;;;;;4950434;29;20031;-69
2023/04/09 11:58:01;;;;;;;5.97;2.10;;;14.80;92.30;;;;;;4952487;29;20049;-69
2023/04/09 12:00:28;;;;;;;3.58;1.85;;;14.40;93.50;;;;;;4948013;28;20045;-69
2023/04/09 12:03:02;;;;;;;6.78;2.88;;;14.50;93.00;;;;;;4952289;29;20086;-68
2023/04/09 12:05:31;;;;;;;4.57;2.50;;;14.70;93.40;;;;;;4949862;28;20047;-68
2023/04/09 12:08:03;;;;;;;4.78;2.58;;;14.80;93.10;;;;;;4956052;29;20662;-68
2023/04/09 12:10:34;;;;;;;4.20;1.90;;;14.90;93.10;;;;;;4953651;29;20058;-67
2023/04/09 12:13:09;;;;;;;5.00;2.35;;;14.70;92.50;;;;;;4955126;29;20090;-68
2023/04/09 12:15:42;;;;;;;6.65;2.25;;;14.80;93.10;;;;;;4954656;28;20103;-68
2023/04/09 12:18:10;;;;;;;2.75;1.35;;;15.00;92.40;;;;;;4954422;28;20031;-68
2023/04/09 12:20:43;;;;;;;4.30;2.00;;;15.10;92.40;;;;;;4953426;28;20051;-67
2023/04/09 12:23:10;;;;;;;2.75;1.48;;;15.20;91.90;;;;;;4937017;29;20037;-68
2023/04/09 12:25:42;;;;;;;3.85;2.33;;;15.00;93.20;;;;;;4951533;29;20039;-68
2023/04/09 12:28:14;;;;;;;3.67;1.75;;;15.40;93.20;;;;;;4936958;29;20480;-68
2023/04/09 12:30:40;;;;;;;3.38;1.80;;;15.70;91.90;;;;;;4952174;29;20031;-68
2023/04/09 12:33:06;;;;;;;2.40;1.60;;;15.10;89.20;;;;;;4954541;28;21160;-68
2023/04/09 12:35:33;;;;;;;3.13;1.75;;;15.70;90.10;;;;;;4953322;29;20023;-68
2023/04/09 12:37:59;;;;;;;3.45;1.60;;;15.40;90.00;;;;;;4954494;28;20031;-68
2023/04/09 12:40:25;;;;;;;1.98;1.42;;;15.40;88.40;;;;;;4951396;29;20380;-68
2023/04/09 12:42:51;;;;;;;2.60;1.50;;;15.10;90.70;;;;;;4954448;29;20089;-68
2023/04/09 12:45:18;;;;;;;4.78;1.83;;;15.50;89.10;;;;;;4955331;28;20035;-68
2023/04/09 12:47:44;;;;;;;3.22;1.75;;;15.20;90.40;;;;;;4954080;28;20399;-68
2023/04/09 12:50:12;;;;;;;4.20;1.63;;;15.70;90.40;;;;;;4951077;29;20031;-68
2023/04/09 12:52:38;;;;;;;2.90;1.75;;;15.90;89.80;;;;;;4955350;29;20063;-68
2023/04/09 12:55:05;;;;;;;3.78;1.85;;;16.20;85.10;;;;;;4952912;29;20591;-68
2023/04/09 12:57:32;;;;;;;2.63;1.63;;;16.40;84.60;;;;;;4955367;28;20603;-68
2023/04/09 12:59:58;;;;;;;2.20;1.40;;;16.30;85.70;;;;;;4952634;29;20126;-68